createdAt,value
2018-09-06T00:00:56.676Z,16.90
2018-09-06T00:03:25.651Z,16.90
2018-09-06T00:05:54.756Z,16.90
2018-09-06T00:08:24.263Z,16.90
2018-09-06T00:10:53.300Z,16.90
2018-09-06T00:13:22.171Z,16.90
2018-09-06T00:16:03.182Z,16.90
2018-09-06T00:18:32.559Z,16.80
2018-09-06T00:21:01.555Z,16.80
2018-09-06T00:23:30.503Z,16.80
2018-09-06T00:25:59.376Z,16.70
2018-09-06T00:28:28.254Z,16.70
2018-09-06T00:30:57.152Z,16.70
2018-09-06T00:33:26.090Z,16.60
2018-09-06T00:35:55.174Z,16.60
2018-09-06T00:38:24.223Z,16.60
2018-09-06T00:40:53.168Z,16.60
2018-09-06T00:43:22.838Z,16.50
2018-09-06T00:45:51.708Z,16.50
2018-09-06T00:48:20.607Z,16.50
2018-09-06T00:50:49.616Z,16.40
2018-09-06T00:53:18.540Z,16.40
2018-09-06T00:55:47.530Z,16.40
2018-09-06T00:58:16.448Z,16.40
2018-09-06T01:00:46.572Z,16.30
2018-09-06T01:03:15.453Z,16.30
2018-09-06T01:05:44.416Z,16.30
2018-09-06T01:08:13.572Z,16.30
2018-09-06T01:10:42.578Z,16.20
2018-09-06T01:13:11.479Z,16.20
2018-09-06T01:15:40.432Z,16.20
2018-09-06T01:18:09.229Z,16.20
2018-09-06T01:20:38.170Z,16.10
2018-09-06T01:23:07.247Z,16.10
2018-09-06T01:25:41.350Z,16.10
2018-09-06T01:28:10.382Z,16.10
2018-09-06T01:30:39.214Z,16.00
2018-09-06T01:33:08.106Z,16.00
2018-09-06T01:35:37.212Z,15.90
2018-09-06T01:38:06.246Z,15.90
2018-09-06T01:40:35.267Z,15.90
2018-09-06T01:43:04.129Z,15.90
2018-09-06T01:45:32.972Z,15.80
2018-09-06T01:48:01.867Z,15.80
2018-09-06T01:50:30.655Z,15.80
2018-09-06T01:52:59.549Z,15.80
2018-09-06T01:55:28.404Z,15.80
2018-09-06T01:57:57.493Z,15.70
2018-09-06T02:00:26.469Z,15.70
2018-09-06T02:02:55.467Z,15.70
2018-09-06T02:05:29.870Z,15.70
2018-09-06T02:07:59.305Z,15.60
2018-09-06T02:10:28.583Z,15.60
2018-09-06T02:12:57.471Z,15.60
2018-09-06T02:15:26.343Z,15.60
2018-09-06T02:17:55.249Z,15.60
2018-09-06T02:20:24.143Z,15.50
2018-09-06T02:22:53.106Z,15.50
2018-09-06T02:25:22.063Z,15.50
2018-09-06T02:27:50.999Z,15.50
2018-09-06T02:30:20.102Z,15.50
2018-09-06T02:32:48.885Z,15.50
2018-09-06T02:35:17.808Z,15.40
2018-09-06T02:37:46.821Z,15.40
2018-09-06T02:40:21.067Z,15.40
2018-09-06T02:42:49.921Z,15.30
2018-09-06T02:45:19.343Z,15.30
2018-09-06T02:47:53.978Z,15.30
2018-09-06T02:50:28.419Z,15.30
2018-09-06T02:52:57.910Z,15.30
2018-09-06T02:55:28.330Z,15.30
2018-09-06T02:57:58.009Z,15.30
2018-09-06T03:00:32.563Z,15.30
2018-09-06T03:03:02.733Z,15.30
2018-09-06T03:05:31.993Z,15.30
2018-09-06T03:08:01.846Z,15.30
2018-09-06T03:10:34.661Z,15.30
2018-09-06T03:13:04.585Z,15.20
2018-09-06T03:15:33.651Z,15.20
2018-09-06T03:18:02.680Z,15.20
2018-09-06T03:20:31.570Z,15.10
2018-09-06T03:23:00.404Z,15.10
2018-09-06T03:25:29.397Z,15.10
2018-09-06T03:27:58.293Z,15.10
2018-09-06T03:30:27.076Z,15.10
2018-09-06T03:32:55.854Z,15.10
2018-09-06T03:35:24.743Z,15.10
2018-09-06T03:37:53.603Z,15.10
2018-09-06T03:40:22.822Z,15.10
2018-09-06T03:42:51.678Z,15.10
2018-09-06T03:45:20.511Z,15.10
2018-09-06T03:47:49.554Z,15.00
2018-09-06T03:50:18.422Z,15.00
2018-09-06T03:52:47.467Z,15.00
2018-09-06T03:55:16.351Z,15.00
2018-09-06T03:57:45.408Z,15.00
2018-09-06T04:00:14.751Z,14.90
2018-09-06T04:02:43.713Z,14.90
2018-09-06T04:05:12.619Z,15.00
2018-09-06T04:07:41.645Z,14.90
2018-09-06T04:10:10.631Z,14.90
2018-09-06T04:12:39.636Z,14.90
2018-09-06T04:15:08.682Z,14.90
2018-09-06T04:17:37.600Z,14.90
2018-09-06T04:20:07.176Z,14.90
2018-09-06T04:22:40.225Z,14.90
2018-09-06T04:25:09.161Z,14.80
2018-09-06T04:27:38.000Z,14.80
2018-09-06T04:30:07.068Z,14.80
2018-09-06T04:32:36.475Z,14.80
2018-09-06T04:35:05.522Z,14.80
2018-09-06T04:37:34.774Z,14.80
2018-09-06T04:40:04.022Z,14.80
2018-09-06T04:42:33.868Z,14.80
2018-09-06T04:45:03.494Z,14.80
2018-09-06T04:47:32.277Z,14.80
2018-09-06T04:50:01.188Z,14.80
2018-09-06T04:52:30.088Z,14.80
2018-09-06T04:54:58.897Z,14.80
2018-09-06T04:57:27.690Z,14.80
2018-09-06T04:59:56.604Z,14.90
2018-09-06T05:02:25.550Z,14.90
2018-09-06T05:04:54.673Z,14.90
2018-09-06T05:07:23.862Z,15.00
2018-09-06T05:09:52.678Z,15.00
2018-09-06T05:12:21.531Z,15.10
2018-09-06T05:14:50.465Z,15.20
2018-09-06T05:17:19.330Z,15.30
2018-09-06T05:19:48.304Z,15.40
2018-09-06T05:22:17.170Z,15.50
2018-09-06T05:24:46.600Z,15.60
2018-09-06T05:27:15.400Z,15.80
2018-09-06T05:29:44.294Z,15.90
2018-09-06T05:32:13.492Z,16.00
2018-09-06T05:34:53.372Z,16.20
2018-09-06T05:37:22.512Z,16.30
2018-09-06T05:39:51.325Z,16.50
2018-09-06T05:42:20.564Z,16.60
2018-09-06T05:44:49.495Z,16.70
2018-09-06T05:47:18.334Z,16.90
2018-09-06T05:49:47.140Z,17.00
2018-09-06T05:52:21.437Z,17.10
2018-09-06T05:54:50.302Z,17.30
2018-09-06T05:57:19.140Z,17.60
2018-09-06T05:59:48.030Z,18.00
2018-09-06T06:02:17.096Z,18.30
2018-09-06T06:04:46.104Z,18.50
2018-09-06T06:07:15.453Z,18.60
2018-09-06T06:09:44.390Z,18.80
2018-09-06T06:12:13.365Z,19.00
2018-09-06T06:14:42.272Z,19.30
2018-09-06T06:17:11.303Z,19.50
2018-09-06T06:19:40.425Z,19.70
2018-09-06T06:22:11.430Z,19.70
2018-09-06T06:24:40.240Z,19.90
2018-09-06T06:27:09.034Z,20.10
2018-09-06T06:29:37.887Z,20.30
2018-09-06T06:32:06.918Z,20.40
2018-09-06T06:34:35.837Z,20.50
2018-09-06T06:37:04.746Z,20.60
2018-09-06T06:39:33.706Z,20.80
2018-09-06T06:42:10.242Z,21.00
2018-09-06T06:44:39.162Z,21.00
2018-09-06T06:47:08.008Z,21.10
2018-09-06T06:49:36.885Z,21.20
2018-09-06T06:52:11.292Z,21.30
2018-09-06T06:54:40.184Z,21.40
2018-09-06T06:57:08.978Z,21.50
2018-09-06T06:59:37.794Z,21.70
2018-09-06T07:02:07.290Z,21.90
2018-09-06T07:04:36.272Z,22.10
2018-09-06T07:07:05.488Z,22.20
2018-09-06T07:09:34.419Z,22.20
2018-09-06T07:12:03.258Z,22.10
2018-09-06T07:14:32.114Z,22.30
2018-09-06T07:17:01.972Z,22.40
2018-09-06T07:19:31.028Z,22.40
2018-09-06T07:22:00.071Z,22.50
2018-09-06T07:24:29.001Z,22.50
2018-09-06T07:26:57.795Z,22.60
2018-09-06T07:29:26.665Z,22.60
2018-09-06T07:31:55.568Z,22.70
2018-09-06T07:34:24.514Z,22.80
2018-09-06T07:36:53.393Z,22.90
2018-09-06T07:39:22.507Z,23.00
2018-09-06T07:41:51.422Z,22.90
2018-09-06T07:44:20.420Z,23.00
2018-09-06T07:46:49.393Z,23.30
2018-09-06T07:49:19.278Z,23.40
2018-09-06T07:51:48.252Z,23.50
2018-09-06T07:54:17.244Z,23.60
2018-09-06T07:56:46.093Z,23.40
2018-09-06T07:59:14.943Z,23.50
2018-09-06T08:01:43.792Z,23.70
2018-09-06T08:04:12.658Z,23.90
2018-09-06T08:06:41.828Z,24.00
2018-09-06T08:09:11.905Z,24.20
2018-09-06T08:11:41.503Z,24.30
2018-09-06T08:14:10.424Z,24.50
2018-09-06T08:16:39.402Z,24.70
2018-09-06T08:19:08.312Z,24.80
2018-09-06T08:21:37.113Z,24.80
2018-09-06T08:24:06.114Z,24.80
2018-09-06T08:26:35.011Z,25.00
2018-09-06T08:29:03.867Z,24.80
2018-09-06T08:31:32.788Z,24.90
2018-09-06T08:34:01.705Z,24.80
2018-09-06T08:36:30.534Z,25.10
2018-09-06T08:38:59.388Z,25.30
2018-09-06T08:41:28.244Z,25.60
2018-09-06T08:43:57.362Z,25.80
2018-09-06T08:46:26.164Z,25.80
2018-09-06T08:48:55.050Z,25.90
2018-09-06T08:51:24.024Z,26.00
2018-09-06T08:53:52.944Z,26.00
2018-09-06T08:56:21.878Z,26.00
2018-09-06T08:58:50.783Z,25.80
2018-09-06T09:01:24.973Z,26.00
2018-09-06T09:03:54.483Z,26.10
2018-09-06T09:06:23.391Z,26.20
2018-09-06T09:08:52.336Z,26.20
2018-09-06T09:11:21.272Z,26.20
2018-09-06T09:13:50.198Z,26.20
2018-09-06T09:16:19.061Z,26.00
2018-09-06T09:18:48.073Z,26.00
2018-09-06T09:21:17.068Z,26.00
2018-09-06T09:23:46.010Z,26.00
2018-09-06T09:26:14.957Z,26.40
2018-09-06T09:28:43.910Z,26.80
2018-09-06T09:31:12.745Z,27.00
2018-09-06T09:33:41.781Z,27.20
2018-09-06T09:36:11.014Z,27.20
2018-09-06T09:38:39.984Z,27.30
2018-09-06T09:41:08.927Z,27.30
2018-09-06T09:43:37.905Z,27.20
2018-09-06T09:48:34.949Z,27.20
2018-09-06T09:51:04.119Z,27.10
2018-09-06T09:53:32.955Z,27.00
2018-09-06T09:56:01.864Z,27.00
2018-09-06T09:58:30.778Z,27.00
2018-09-06T10:00:59.696Z,27.20
2018-09-06T10:03:33.716Z,27.30
2018-09-06T10:06:07.913Z,27.50
2018-09-06T10:08:41.924Z,27.70
2018-09-06T10:11:10.939Z,27.90
2018-09-06T10:13:39.855Z,27.90
2018-09-06T10:16:09.128Z,27.80
2018-09-06T10:18:38.192Z,27.70
2018-09-06T10:21:07.049Z,27.90
2018-09-06T10:23:36.033Z,28.10
2018-09-06T10:26:04.941Z,28.10
2018-09-06T10:28:33.886Z,28.30
2018-09-06T10:31:03.119Z,28.30
2018-09-06T10:33:31.921Z,28.30
2018-09-06T10:36:00.889Z,28.40
2018-09-06T10:38:29.747Z,28.30
2018-09-06T10:40:58.533Z,28.40
2018-09-06T10:43:27.391Z,28.40
2018-09-06T10:45:56.270Z,28.40
2018-09-06T10:48:25.201Z,28.40
2018-09-06T10:50:54.101Z,28.40
2018-09-06T10:53:23.168Z,28.50
2018-09-06T10:55:52.217Z,28.60
2018-09-06T10:58:21.212Z,28.80
2018-09-06T11:00:53.980Z,28.90
2018-09-06T11:03:22.938Z,29.00
2018-09-06T11:05:51.968Z,29.10
2018-09-06T11:08:21.321Z,29.00
2018-09-06T11:10:50.231Z,29.10
2018-09-06T11:13:19.825Z,28.90
2018-09-06T11:15:48.708Z,29.00
2018-09-06T11:18:17.489Z,28.90
2018-09-06T11:20:46.525Z,28.80
2018-09-06T11:23:15.379Z,28.80
2018-09-06T11:25:44.574Z,28.60
2018-09-06T11:28:13.471Z,28.70
2018-09-06T11:30:42.287Z,28.60
2018-09-06T11:33:11.599Z,28.30
2018-09-06T11:35:40.336Z,28.00
2018-09-06T11:38:09.207Z,28.30
2018-09-06T11:40:38.090Z,28.60
2018-09-06T11:43:07.157Z,28.30
2018-09-06T11:45:36.046Z,28.70
2018-09-06T11:48:06.030Z,28.80
2018-09-06T11:50:34.970Z,28.90
2018-09-06T11:53:03.971Z,29.00
2018-09-06T11:55:33.221Z,29.10
2018-09-06T11:58:02.238Z,29.30
2018-09-06T12:00:31.950Z,29.40
2018-09-06T12:03:00.808Z,29.40
2018-09-06T12:05:29.869Z,29.40
2018-09-06T12:07:59.313Z,29.50
2018-09-06T12:10:28.253Z,29.50
2018-09-06T12:12:57.715Z,29.30
2018-09-06T12:15:26.625Z,29.30
2018-09-06T12:17:55.773Z,29.00
2018-09-06T12:20:24.754Z,29.00
2018-09-06T12:22:53.847Z,28.80
2018-09-06T12:25:23.051Z,28.90
2018-09-06T12:27:52.127Z,29.50
2018-09-06T12:30:22.239Z,31.10
2018-09-06T12:32:51.347Z,32.70
2018-09-06T12:35:20.465Z,33.80
2018-09-06T12:37:49.382Z,34.50
2018-09-06T12:40:18.251Z,34.90
2018-09-06T12:42:47.270Z,34.80
2018-09-06T12:45:16.700Z,35.30
2018-09-06T12:47:46.723Z,36.70
2018-09-06T12:50:15.432Z,37.50
2018-09-06T12:52:44.452Z,37.80
2018-09-06T12:55:13.361Z,37.10
2018-09-06T12:57:42.338Z,35.80
2018-09-06T13:00:11.258Z,35.30
2018-09-06T13:02:40.182Z,35.10
2018-09-06T13:05:09.064Z,35.30
2018-09-06T13:07:38.220Z,35.30
2018-09-06T13:10:07.232Z,34.80
2018-09-06T13:12:36.114Z,33.90
2018-09-06T13:15:05.050Z,32.70
2018-09-06T13:17:33.840Z,31.30
2018-09-06T13:20:02.716Z,30.60
2018-09-06T13:22:31.618Z,30.30
2018-09-06T13:25:00.603Z,30.20
2018-09-06T13:27:29.665Z,30.10
2018-09-06T13:29:58.504Z,30.10
2018-09-06T13:32:27.409Z,29.90
2018-09-06T13:34:56.255Z,29.60
2018-09-06T13:37:25.106Z,29.30
2018-09-06T13:39:53.995Z,29.20
2018-09-06T13:42:23.065Z,29.20
2018-09-06T13:44:51.965Z,29.10
2018-09-06T13:47:21.209Z,29.00
2018-09-06T13:49:50.190Z,28.90
2018-09-06T13:52:19.241Z,28.90
2018-09-06T13:54:48.141Z,28.80
2018-09-06T13:57:16.998Z,28.80
2018-09-06T13:59:45.908Z,28.90
2018-09-06T14:02:14.757Z,28.80
2018-09-06T14:04:44.046Z,28.80
2018-09-06T14:07:13.131Z,28.70
2018-09-06T14:09:42.058Z,28.70
2018-09-06T14:12:10.889Z,28.70
2018-09-06T14:14:39.814Z,28.70
2018-09-06T14:17:08.717Z,28.80
2018-09-06T14:19:37.554Z,28.80
2018-09-06T14:22:06.840Z,28.60
2018-09-06T14:24:35.912Z,28.60
2018-09-06T14:27:04.745Z,28.50
2018-09-06T14:29:33.871Z,28.40
2018-09-06T14:32:02.839Z,28.40
2018-09-06T14:34:31.569Z,28.40
2018-09-06T14:37:00.435Z,28.30
2018-09-06T14:39:29.247Z,28.20
2018-09-06T14:41:58.137Z,28.20
2018-09-06T14:44:27.108Z,28.20
2018-09-06T14:46:55.952Z,28.30
2018-09-06T14:49:24.900Z,28.50
2018-09-06T14:51:53.829Z,28.90
2018-09-06T14:54:22.746Z,29.20
2018-09-06T14:56:52.040Z,29.40
2018-09-06T14:59:20.918Z,29.50
2018-09-06T15:01:49.847Z,29.60
2018-09-06T15:04:18.898Z,29.60
2018-09-06T15:06:47.635Z,29.40
2018-09-06T15:09:16.580Z,29.00
2018-09-06T15:11:45.552Z,28.80
2018-09-06T15:14:14.550Z,28.70
2018-09-06T15:16:43.458Z,28.50
2018-09-06T15:19:12.356Z,28.40
2018-09-06T15:21:41.421Z,28.30
2018-09-06T15:24:10.294Z,28.20
2018-09-06T15:26:39.142Z,28.10
2018-09-06T15:29:07.981Z,27.80
2018-09-06T15:31:36.840Z,27.80
2018-09-06T15:34:06.474Z,27.80
2018-09-06T15:36:36.170Z,27.80
2018-09-06T15:39:07.159Z,27.70
2018-09-06T15:41:36.077Z,27.70
2018-09-06T15:44:04.978Z,27.70
2018-09-06T15:46:33.937Z,27.70
2018-09-06T15:49:02.952Z,27.70
2018-09-06T15:51:31.858Z,27.60
2018-09-06T15:54:00.798Z,27.40
2018-09-06T15:56:29.655Z,27.30
2018-09-06T15:58:58.606Z,27.40
2018-09-06T16:01:27.600Z,27.70
2018-09-06T16:03:56.665Z,27.70
2018-09-06T16:06:25.788Z,27.60
2018-09-06T16:08:54.833Z,27.50
2018-09-06T16:11:23.805Z,27.50
2018-09-06T16:13:52.724Z,27.50
2018-09-06T16:16:21.538Z,27.40
2018-09-06T16:18:50.566Z,27.30
2018-09-06T16:21:19.682Z,27.20
2018-09-06T16:23:48.673Z,27.10
2018-09-06T16:26:17.678Z,26.80
2018-09-06T16:28:46.610Z,26.70
2018-09-06T16:31:15.510Z,26.70
2018-09-06T16:33:44.257Z,26.60
2018-09-06T16:36:13.178Z,26.60
2018-09-06T16:38:42.034Z,26.60
2018-09-06T16:41:11.371Z,26.60
2018-09-06T16:43:40.546Z,26.60
2018-09-06T16:46:09.538Z,26.50
2018-09-06T16:48:38.436Z,26.40
2018-09-06T16:51:07.354Z,26.40
2018-09-06T16:53:36.212Z,26.20
2018-09-06T16:56:05.051Z,26.00
2018-09-06T16:58:34.247Z,26.00
2018-09-06T17:01:03.275Z,25.80
2018-09-06T17:03:32.245Z,25.60
2018-09-06T17:06:01.531Z,25.50
2018-09-06T17:08:30.612Z,25.40
2018-09-06T17:10:59.591Z,25.30
2018-09-06T17:13:28.470Z,25.20
2018-09-06T17:15:57.880Z,25.10
2018-09-06T17:18:26.798Z,25.00
2018-09-06T17:20:56.018Z,24.90
2018-09-06T17:23:24.900Z,24.80
2018-09-06T17:25:54.060Z,24.70
2018-09-06T17:28:23.070Z,24.60
2018-09-06T17:30:52.036Z,24.50
2018-09-06T17:33:20.880Z,24.40
2018-09-06T17:35:49.881Z,24.30
2018-09-06T17:38:18.924Z,24.20
2018-09-06T17:40:48.710Z,24.10
2018-09-06T17:43:17.636Z,24.00
2018-09-06T17:45:47.103Z,24.00
2018-09-06T17:48:16.100Z,23.90
2018-09-06T17:50:45.105Z,23.80
2018-09-06T17:53:14.029Z,23.70
2018-09-06T17:55:43.222Z,23.60
2018-09-06T17:58:12.326Z,23.50
2018-09-06T18:00:46.266Z,23.40
2018-09-06T18:03:16.433Z,23.30
2018-09-06T18:05:45.401Z,23.20
2018-09-06T18:08:14.300Z,23.10
2018-09-06T18:10:43.338Z,23.00
2018-09-06T18:13:13.180Z,23.00
2018-09-06T18:15:42.029Z,22.90
2018-09-06T18:18:11.005Z,22.80
2018-09-06T18:20:40.105Z,22.80
2018-09-06T18:23:09.177Z,22.80
2018-09-06T18:25:38.682Z,22.80
2018-09-06T18:28:07.730Z,22.70
2018-09-06T18:30:36.827Z,22.70
2018-09-06T18:33:06.075Z,22.70
2018-09-06T18:35:35.091Z,22.70
2018-09-06T18:38:04.081Z,22.60
2018-09-06T18:40:32.942Z,22.60
2018-09-06T18:43:01.821Z,22.60
2018-09-06T18:45:30.774Z,22.50
2018-09-06T18:47:59.827Z,22.50
2018-09-06T18:50:30.051Z,22.50
2018-09-06T18:52:59.036Z,22.40
2018-09-06T18:55:28.128Z,22.40
2018-09-06T18:57:56.918Z,22.40
2018-09-06T19:00:25.924Z,22.40
2018-09-06T19:02:54.982Z,22.40
2018-09-06T19:05:24.394Z,22.30
2018-09-06T19:07:53.507Z,22.30
2018-09-06T19:10:22.579Z,22.30
2018-09-06T19:12:51.540Z,22.30
2018-09-06T19:15:20.350Z,22.20
2018-09-06T19:17:49.285Z,22.20
2018-09-06T19:20:18.296Z,22.20
2018-09-06T19:22:50.795Z,22.10
2018-09-06T19:25:20.363Z,22.10
2018-09-06T19:27:49.664Z,22.10
2018-09-06T19:30:18.851Z,22.10
2018-09-06T19:32:48.051Z,22.00
2018-09-06T19:35:17.240Z,22.00
2018-09-06T19:37:46.227Z,22.00
2018-09-06T19:40:15.201Z,21.90
2018-09-06T19:42:44.192Z,21.80
2018-09-06T19:45:13.338Z,21.70
2018-09-06T19:47:42.240Z,21.80
2018-09-06T19:50:12.188Z,21.70
2018-09-06T19:52:41.299Z,21.80
2018-09-06T19:55:10.233Z,21.80
2018-09-06T19:57:39.365Z,21.70
2018-09-06T20:00:09.061Z,21.70
2018-09-06T20:02:40.075Z,21.70
2018-09-06T20:05:09.847Z,21.60
2018-09-06T20:07:39.727Z,21.60
2018-09-06T20:10:08.797Z,21.60
2018-09-06T20:12:37.864Z,21.50
2018-09-06T20:15:07.211Z,21.50
2018-09-06T20:17:36.383Z,21.40
2018-09-06T20:20:05.612Z,21.40
2018-09-06T20:22:34.760Z,21.30
2018-09-06T20:25:03.985Z,21.20
2018-09-06T20:27:36.543Z,21.20
2018-09-06T20:30:06.359Z,21.00
2018-09-06T20:32:35.254Z,20.80
2018-09-06T20:35:04.260Z,20.40
2018-09-06T20:37:33.612Z,20.30
2018-09-06T20:40:02.551Z,20.20
2018-09-06T20:42:31.635Z,20.10
2018-09-06T20:45:01.149Z,20.00
2018-09-06T20:47:30.107Z,19.80
2018-09-06T20:49:59.503Z,19.70
2018-09-06T20:52:28.455Z,19.60
2018-09-06T20:55:02.606Z,19.40
2018-09-06T20:57:31.807Z,19.30
2018-09-06T21:00:01.275Z,19.30
2018-09-06T21:02:35.690Z,19.30
2018-09-06T21:05:05.010Z,19.30
2018-09-06T21:07:38.579Z,19.20
2018-09-06T21:10:07.899Z,19.10
2018-09-06T21:12:36.792Z,19.10
2018-09-06T21:15:05.759Z,19.00
2018-09-06T21:17:34.961Z,19.00
2018-09-06T21:20:03.893Z,19.00
2018-09-06T21:22:32.819Z,18.90
2018-09-06T21:25:02.549Z,18.90
2018-09-06T21:27:31.441Z,18.80
2018-09-06T21:30:00.439Z,18.80
2018-09-06T21:32:29.321Z,18.80
2018-09-06T21:34:58.609Z,18.80
2018-09-06T21:37:27.635Z,18.80
2018-09-06T21:39:56.687Z,18.80
2018-09-06T21:42:25.659Z,18.70
2018-09-06T21:44:54.755Z,18.70
2018-09-06T21:47:23.637Z,18.70
2018-09-06T21:49:52.665Z,18.70
2018-09-06T21:52:21.753Z,18.70
2018-09-06T21:54:50.995Z,18.80
2018-09-06T21:57:19.831Z,18.80
2018-09-06T21:59:48.982Z,18.80
2018-09-06T22:02:22.965Z,18.70
2018-09-06T22:04:51.941Z,18.70
2018-09-06T22:07:20.905Z,18.60
2018-09-06T22:09:49.965Z,18.60
2018-09-06T22:12:19.336Z,18.60
2018-09-06T22:14:50.104Z,18.60
2018-09-06T22:17:18.932Z,18.60
2018-09-06T22:19:48.480Z,18.60
2018-09-06T22:22:17.512Z,18.60
2018-09-06T22:24:46.456Z,18.60
2018-09-06T22:27:15.359Z,18.50
2018-09-06T22:29:44.459Z,18.50
2018-09-06T22:32:13.420Z,18.50
2018-09-06T22:34:42.341Z,18.40
2018-09-06T22:37:11.247Z,18.40
2018-09-06T22:39:40.537Z,18.40
2018-09-06T22:42:09.563Z,18.30
2018-09-06T22:44:38.497Z,18.40
2018-09-06T22:47:07.335Z,18.30
2018-09-06T22:49:36.217Z,18.20
2018-09-06T22:52:05.717Z,18.10
2018-09-06T22:54:34.709Z,18.10
2018-09-06T22:57:03.523Z,18.20
2018-09-06T22:59:32.711Z,18.20
2018-09-06T23:02:02.537Z,18.10
2018-09-06T23:04:31.591Z,18.10
2018-09-06T23:07:00.975Z,18.10
2018-09-06T23:09:30.265Z,18.10
2018-09-06T23:11:59.187Z,18.20
2018-09-06T23:14:28.009Z,18.10
2018-09-06T23:16:56.905Z,18.10
2018-09-06T23:19:25.750Z,18.10
2018-09-06T23:21:54.779Z,18.10
2018-09-06T23:24:23.651Z,18.10
2018-09-06T23:26:52.645Z,18.10
2018-09-06T23:29:22.084Z,18.10
2018-09-06T23:31:51.022Z,18.10
2018-09-06T23:34:20.190Z,18.10
2018-09-06T23:36:49.091Z,18.20
2018-09-06T23:39:18.023Z,18.20
2018-09-06T23:41:46.876Z,18.20
2018-09-06T23:44:15.867Z,18.20
2018-09-06T23:46:44.862Z,18.20
2018-09-06T23:49:13.694Z,18.20
2018-09-06T23:51:42.750Z,18.20
2018-09-06T23:54:11.756Z,18.30
2018-09-06T23:56:40.809Z,18.30
2018-09-06T23:59:10.072Z,18.30
